Daily Tabular Data
[Select Refresh to Update]


10/20/18
Time         Wind Dir   Wind Spd  Wind Gust     Hum In   Humidity    Temp In       Temp  Raw Barom   Tot Rain Wind Chill Heat Ix In Heat Index  Dew Point  DailyRain   HourRain   RainRate
                            mph        mph          %          %         F         F         in         in         F         F         F         F         in         in      in/hr
12:00am           136          0          2         36         27       77.4       70.4      29.11       0.60       70.4       77.0       69.4       34.9       0.00       0.00      0.000
12:30am           173          0          1         36         28       77.4       70.2      29.10       0.60       70.2       77.0       69.3       35.6       0.00       0.00      0.000
1:00am            175          0          4         35         30       77.3       68.9      29.10       0.60       68.9       76.8       68.1       36.2       0.00       0.00      0.000
1:30am            168          1          6         35         30       77.2       68.7      29.10       0.60       68.7       76.7       67.9       36.0       0.00       0.00      0.000
2:00am            173          1          4         35         32       77.1       67.4      29.09       0.60       67.4       76.6       66.7       36.5       0.00       0.00      0.000
2:30am            160          0          2         35         29       77.1       68.2      29.09       0.60       68.2       76.6       67.3       34.8       0.00       0.00      0.000
3:00am            171          1          5         35         32       77.0       66.9      29.08       0.60       66.9       76.5       66.2       36.1       0.00       0.00      0.000
3:30am            149          0          2         35         29       76.9       68.4      29.08       0.60       68.4       76.4       67.5       34.9       0.00       0.00      0.000
4:00am            171          0          3         35         28       76.9       69.3      29.08       0.60       69.3       76.4       68.4       34.8       0.00       0.00      0.000
4:30am            160          0          5         35         35       76.8       66.3      29.08       0.60       66.3       76.3       65.8       37.9       0.00       0.00      0.000
5:00am            173          0          2         34         30       76.7       67.9      29.08       0.60       67.9       76.2       67.1       35.4       0.00       0.00      0.000
5:30am            176          2          3         34         32       76.6       67.5      29.09       0.60       67.5       76.1       66.8       36.6       0.00       0.00      0.000
6:00am            173          2          4         34         28       76.5       70.0      29.09       0.60       70.0       76.0       69.1       35.4       0.00       0.00      0.000
6:30am            183          1          3         34         30       76.4       68.9      29.09       0.60       68.9       75.9       68.1       36.2       0.00       0.00      0.000
7:00am            165          1          5         34         30       76.3       69.3      29.09       0.60       69.3       75.8       68.5       36.6       0.00       0.00      0.000
7:30am            182          0          4         34         30       76.2       69.2      29.09       0.60       69.2       75.7       68.4       36.5       0.00       0.00      0.000
8:00am            175          0          0         34         29       76.2       71.9      29.10       0.60       71.9       75.7       71.0       38.0       0.00       0.00      0.000
8:30am            213          0          0         34         43       76.2       73.3      29.10       0.60       73.3       75.7       73.5       49.5       0.00       0.00      0.000
9:00am            215          0          0         33         34       76.3       78.0      29.11       0.60       78.0       75.7       77.5       47.4       0.00       0.00      0.000
9:30am            327          0          0         32         27       77.0       77.4      29.11       0.60       77.4       76.3       76.4       40.8       0.00       0.00      0.000
10:00am           295          0          1         31         27       78.8       80.0      29.11       0.60       80.0       78.1       79.0       43.1       0.00       0.00      0.000
10:30am           305          0          4         32         25       77.8       82.7      29.10       0.60       82.7       77.1       80.6       43.3       0.00       0.00      0.000
11:00am           347          0          2         33         23       77.2       82.7      29.10       0.60       82.7       76.6       80.5       41.2       0.00       0.00      0.000
11:30am           294          0          5         33         26       77.1       83.2      29.09       0.60       83.2       76.5       81.0       44.8       0.00       0.00      0.000
12:00pm            19          2          9         34         25       77.1       83.9      29.08       0.60       83.9       76.6       81.5       44.3       0.00       0.00      0.000
12:30pm            22          4          9         34         23       77.1       85.0      29.06       0.60       85.0       76.6       82.2       43.1       0.00       0.00      0.000
1:00pm             19          4         10         35         20       77.2       85.9      29.05       0.60       85.9       76.7       82.7       40.2       0.00       0.00      0.000
1:30pm             10          7         14         35         18       77.3       86.7      29.04       0.60       86.7       76.8       83.3       38.2       0.00       0.00      0.000
2:00pm            341          4         15         35         18       77.5       87.3      29.03       0.60       87.3       77.0       83.8       38.7       0.00       0.00      0.000
2:30pm            329          1         11         35         18       77.6       87.4      29.02       0.60       87.4       77.1       83.9       38.7       0.00       0.00      0.000
3:00pm             20          3         17         36         20       77.8       85.6      29.02       0.60       85.6       77.4       82.5       40.0       0.00       0.00      0.000
3:30pm             19          5         14         36         19       77.9       85.3      29.02       0.60       85.3       77.5       82.2       38.4       0.00       0.00      0.000
4:00pm             69          2         12         36         19       78.0       84.6      29.02       0.60       84.6       77.6       81.7       37.8       0.00       0.00      0.000
4:30pm             36         10         13         36         22       78.2       82.3      29.02       0.60       82.3       77.8       80.2       39.7       0.00       0.00      0.000
5:00pm            340          4         11         36         24       78.2       81.0      29.02       0.60       81.0       77.8       79.4       40.8       0.00       0.00      0.000
5:30pm            349          0          9         36         25       78.3       81.3      29.02       0.60       81.3       77.9       79.7       42.2       0.00       0.00      0.000
6:00pm            347          0          4         36         27       78.4       79.7      29.02       0.60       79.7       78.0       78.7       42.8       0.00       0.00      0.000
6:30pm            268          0          1         37         31       78.5       76.6      29.02       0.60       76.6       78.2       75.9       43.7       0.00       0.00      0.000
7:00pm            215          0          0         37         33       78.5       74.1      29.03       0.60       74.1       78.2       73.5       43.2       0.00       0.00      0.000
7:30pm            303          0          1         37         40       78.5       72.9      29.04       0.60       72.9       78.2       72.8       47.2       0.00       0.00      0.000
8:00pm            298          0          1         37         41       78.5       71.0      29.05       0.60       71.0       78.2       71.0       46.1       0.00       0.00      0.000
8:30pm            201          0          0         37         42       78.4       70.5      29.06       0.60       70.5       78.1       70.6       46.3       0.00       0.00      0.000
9:00pm            151          0          2         37         41       78.4       68.9      29.06       0.60       68.9       78.1       68.9       44.3       0.00       0.00      0.000
9:30pm            138          0          3         36         39       78.3       68.7      29.06       0.60       68.7       77.9       68.5       42.8       0.00       0.00      0.000
10:00pm           189          0          3         36         41       78.3       67.9      29.07       0.60       67.9       77.9       67.9       43.4       0.00       0.00      0.000
10:30pm           175          1          2         36         43       78.2       67.2      29.06       0.60       67.2       77.8       67.4       44.0       0.00       0.00      0.000
11:00pm           155          0          3         36         42       78.1       66.9      29.06       0.60       66.9       77.7       67.0       43.1       0.00       0.00      0.000
11:30pm           165          0          4         36         36       78.1       68.4      29.06       0.60       68.4       77.7       68.0       40.4       0.00       0.00      0.000